Latest Weather Observations for Cabramurra

IDN60801

Issued at 11:02 am EDT Thursday 21 November 2019 (issued every 10 minutes, with the page automatically refreshed every 10 minutes)

About weather observations | Map of weather stations | Latest weather observations for NSW | Other Formats
Station Details ID: 072161 Name: CABRAMURRA SMHEA AWS Lat: -35.94 Lon: 148.38 Height: 1482.4 m
Data from the previous 72 hours. | See also: Recent months at Cabramurra
Date/Time
EDT
Temp
°C
App
Temp
°C
Dew
Point
°C
Rel
Hum
%
Delta-T
°C
Wind Press
QNH
hPa
Press
MSL
hPa
Rain since
9am
mm
Dir  Spd
km/h
Gust
km/h
Spd
kts
Gust
kts
21/11:00am 23.9 19.2 5.3 30 10.1 N 19 26 10 14 - - 0.0
21/10:30am 23.4 18.3 3.9 28 10.3 N 20 37 11 20 - - 0.0
21/10:00am 22.9 17.8 3.9 29 10.0 N 20 30 11 16 - - 0.0
21/09:30am 22.5 17.2 2.1 26 10.3 N 19 26 10 14 - - 0.0
21/09:00am 22.0 17.9 2.2 27 10.0 NNE 13 20 7 11 - - 0.0
21/08:30am 21.8 16.8 1.5 26 10.1 NNE 17 24 9 13 - - 0.0
21/08:00am 21.6 16.6 1.3 26 10.1 NNE 17 26 9 14 - - 0.0
21/07:30am 20.8 14.9 -0.5 24 10.2 NNE 20 30 11 16 - - 0.0
21/07:00am 20.2 13.6 -0.4 25 9.8 NNE 24 33 13 18 - - 0.0
21/06:30am 19.5 12.6 0.0 27 9.3 NNE 26 35 14 19 - - 0.0
21/06:00am 18.9 12.1 0.5 29 8.8 NNE 26 37 14 20 - - 0.0
21/05:30am 18.8 12.3 0.4 29 8.8 NNE 24 35 13 19 - - 0.0
21/05:00am 18.6 12.1 0.2 29 8.8 NNE 24 33 13 18 - - 0.0
21/04:30am 18.4 12.3 0.5 30 8.6 NNE 22 30 12 16 - - 0.0
21/04:00am 18.5 12.8 0.6 30 8.6 NNE 20 30 11 16 - - 0.0
21/03:30am 18.2 13.0 0.4 30 8.5 NNE 17 24 9 13 - - 0.0
21/03:00am 18.6 13.5 0.7 30 8.6 NNE 17 24 9 13 - - 0.0
21/02:30am 18.3 13.1 0.4 30 8.5 NNE 17 22 9 12 - - 0.0
21/02:00am 18.3 13.2 0.9 31 8.4 NNE 17 24 9 13 - - 0.0
21/01:30am 18.4 12.9 0.5 30 8.6 NNE 19 26 10 14 - - 0.0
21/01:00am 18.4 13.3 1.0 31 8.4 NNE 17 22 9 12 - - 0.0
21/12:30am 18.5 13.5 1.1 31 8.4 NNE 17 24 9 13 - - 0.0
21/12:00am 18.2 13.0 0.4 30 8.5 NNE 17 24 9 13 - - 0.0
 
Date/Time
EDT
Temp
°C
App
Temp
°C
Dew
Point
°C
Rel
Hum
%
Delta-T
°C
Wind Press
QNH
hPa
Press
MSL
hPa
Rain since
9am
mm
Dir  Spd
km/h
Gust
km/h
Spd
kts
Gust
kts
20/11:30pm 18.3 13.0 -0.5 28 8.8 NNE 17 22 9 12 - - 0.0
20/11:00pm 18.6 14.2 -2.3 24 9.5 N 11 15 6 8 - - 0.0
20/10:30pm 18.7 13.6 -1.7 25 9.4 NNE 15 20 8 11 - - 0.0
20/10:00pm 17.8 13.2 -0.9 28 8.7 NE 13 19 7 10 - - 0.0
20/09:30pm 18.4 15.1 0.1 29 8.7 N 7 11 4 6 - - 0.0
20/09:00pm 18.6 16.6 -0.2 28 8.9 CALM 0 0 0 0 - - 0.0
20/08:30pm 19.3 15.9 -0.7 26 9.4 SSE 7 11 4 6 - - 0.0
20/08:00pm 18.9 16.1 -0.5 27 9.1 S 4 7 2 4 - - 0.0
20/07:30pm 20.1 16.9 0.5 27 9.5 W 7 9 4 5 - - 0.0
20/07:00pm 21.2 17.9 0.4 25 10.1 W 7 11 4 6 - - 0.0
20/06:30pm 21.9 18.3 0.4 24 10.5 WNW 9 13 5 7 - - 0.0
20/06:00pm 22.1 18.1 0.6 24 10.6 W 11 17 6 9 - - 0.0
20/05:30pm 22.1 17.3 0.0 23 10.8 WSW 15 20 8 11 - - 0.0
20/05:00pm 22.1 17.5 -1.2 21 11.1 NW 13 20 7 11 - - 0.0
20/04:30pm 21.9 17.5 -2.7 19 11.4 W 11 15 6 8 - - 0.0
20/04:00pm 21.8 17.1 -2.1 20 11.1 WNW 13 20 7 11 - - 0.0
20/03:30pm 21.2 16.2 -1.3 22 10.6 NW 15 20 8 11 - - 0.0
20/03:00pm 21.3 16.0 -0.6 23 10.5 WNW 17 28 9 15 - - 0.0
20/02:30pm 21.3 16.7 -1.3 22 10.7 W 13 26 7 14 - - 0.0
20/02:00pm 21.4 16.6 0.0 24 10.4 W 15 24 8 13 - - 0.0
20/01:30pm 20.6 15.3 -3.8 19 10.9 W 15 24 8 13 - - 0.0
20/01:00pm 19.8 14.3 -5.2 18 10.8 WNW 15 24 8 13 - - 0.0
20/12:30pm 19.4 14.6 -2.8 22 10.0 WNW 13 20 7 11 - - 0.0
20/12:00pm 19.0 13.8 -2.6 23 9.8 WNW 15 20 8 11 - - 0.0
20/11:30am 18.5 14.0 -0.3 28 8.9 WNW 13 19 7 10 - - 0.0
20/11:00am 17.8 13.4 -2.5 25 9.1 WNW 11 15 6 8 - - 0.0
20/10:30am 16.5 13.2 2.5 39 6.9 WNW 9 15 5 8 - - 0.0
20/10:00am 16.7 13.6 0.4 33 7.7 WNW 6 9 3 5 - - 0.0
20/09:30am 15.5 12.3 0.9 37 6.9 NNW 7 9 4 5 - - 0.0
20/09:00am 15.0 11.4 -2.0 31 7.5 NNW 7 9 4 5 - - 0.0
20/08:30am 14.1 11.2 2.7 46 5.5 N 7 9 4 5 - - 0.0
20/08:00am 13.6 10.6 1.9 45 5.5 N 7 9 4 5 - - 0.0
20/07:30am 13.7 10.5 1.0 42 5.9 NNE 7 9 4 5 - - 0.0
20/07:00am 12.8 9.7 0.2 42 5.7 NNE 6 7 3 4 - - 0.0
20/06:30am 12.5 9.4 0.0 42 5.6 NNW 6 6 3 3 - - 0.0
20/06:00am 11.3 8.9 -0.2 45 5.1 W 2 7 1 4 - - 0.0
20/05:30am 11.7 8.0 -0.1 44 5.3 WSW 9 13 5 7 - - 0.0
20/05:00am 11.7 8.4 0.2 45 5.2 SSW 7 9 4 5 - - 0.0
20/04:30am 11.4 7.7 0.2 46 5.0 S 9 11 5 6 - - 0.0
20/04:00am 11.7 8.7 0.5 46 5.1 SW 6 11 3 6 - - 0.0
20/03:30am 12.1 9.5 0.8 46 5.2 SW 4 11 2 6 - - 0.0
20/03:00am 11.7 8.1 0.5 46 5.1 WNW 9 11 5 6 - - 0.0
20/02:30am 12.0 8.4 0.5 45 5.2 WNW 9 11 5 6 - - 0.0
20/02:00am 13.3 10.3 0.7 42 5.8 NW 6 11 3 6 - - 0.0
20/01:30am 12.5 8.9 0.6 44 5.4 WNW 9 11 5 6 - - 0.0
20/01:00am 12.7 9.5 0.5 43 5.6 W 7 9 4 5 - - 0.0
20/12:30am 13.2 9.6 0.6 42 5.8 WNW 9 11 5 6 - - 0.0
20/12:00am 13.6 9.7 0.9 42 5.9 WNW 11 13 6 7 - - 0.0
 
Date/Time
EDT
Temp
°C
App
Temp
°C
Dew
Point
°C
Rel
Hum
%
Delta-T
°C
Wind Press
QNH
hPa
Press
MSL
hPa
Rain since
9am
mm
Dir  Spd
km/h
Gust
km/h
Spd
kts
Gust
kts
19/11:30pm 14.4 10.9 1.0 40 6.3 NW 9 13 5 7 - - 0.0
19/11:00pm 14.1 10.5 0.7 40 6.2 WNW 9 15 5 8 - - 0.0
19/10:30pm 14.8 10.8 0.6 38 6.6 W 11 17 6 9 - - 0.0
19/10:00pm 15.2 9.7 0.6 37 6.8 WSW 19 24 10 13 - - 0.0
19/09:30pm 15.5 10.3 0.1 35 7.1 W 17 24 9 13 - - 0.0
19/09:00pm 16.3 10.1 0.0 33 7.6 WSW 22 35 12 19 - - 0.0
19/08:30pm 16.7 10.9 -0.1 32 7.8 WSW 20 35 11 19 - - 0.0
19/08:00pm 17.4 11.1 -0.8 29 8.4 W 22 35 12 19 - - 0.0
19/07:30pm 18.1 12.2 -0.7 28 8.8 WSW 20 30 11 16 - - 0.0
19/07:00pm 18.1 11.8 -1.2 27 8.9 WSW 22 35 12 19 - - 0.0
19/06:30pm 18.9 12.6 -1.0 26 9.3 W 22 41 12 22 - - 0.0
19/06:00pm 19.9 13.5 -1.8 23 10.0 W 22 41 12 22 - - 0.0
19/05:30pm 20.6 13.4 -1.8 22 10.4 W 26 37 14 20 - - 0.0
19/05:00pm 20.7 13.6 -1.1 23 10.3 WNW 26 41 14 22 - - 0.0
19/04:30pm 21.1 13.7 -0.8 23 10.4 W 28 43 15 23 - - 0.0
19/04:00pm 20.6 11.7 -1.8 22 10.4 WNW 35 46 19 25 - - 0.0
19/03:48pm 20.6 13.0 -2.5 21 10.6 W 28 50 15 27 - - 0.0
19/03:30pm 20.6 13.1 -1.2 23 10.2 W 28 44 15 24 - - 0.0
19/03:19pm 20.6 13.2 -0.7 24 10.1 W 28 48 15 26 - - 0.0
19/03:00pm 20.6 13.4 -1.8 22 10.4 W 26 41 14 22 - - 0.0
19/02:30pm 20.1 11.5 -2.3 22 10.3 WNW 33 54 18 29 - - 0.0
19/02:23pm 20.5 12.4 -0.2 25 9.9 WNW 32 50 17 27 - - 0.0
19/02:15pm 19.9 11.4 -1.8 23 10.0 W 33 50 18 27 - - 0.0
19/02:12pm 20.3 12.0 -1.5 23 10.2 W 32 48 17 26 - - 0.0
19/02:08pm 20.0 12.1 -1.2 24 9.9 WNW 30 46 16 25 - - 0.0
19/02:00pm 20.0 10.5 -0.6 25 9.8 WNW 39 57 21 31 - - 0.0
19/01:30pm 19.5 9.7 -0.5 26 9.5 WNW 41 65 22 35 - - 0.0
19/01:00pm 18.9 11.1 1.4 31 8.5 WNW 32 52 17 28 - - 0.0
19/12:40pm 18.4 11.4 1.9 33 8.1 W 28 54 15 29 - - 0.0
19/12:30pm 18.5 11.8 1.5 32 8.3 W 26 44 14 24 - - 0.0
19/12:00pm 17.8 9.8 1.7 34 7.8 WNW 33 57 18 31 - - 0.0
19/11:30am 16.9 8.0 0.5 33 7.7 WNW 37 57 20 31 - - 0.0
19/11:00am 16.2 7.9 2.2 39 6.8 WNW 35 61 19 33 - - 0.0
19/10:30am 15.4 7.0 1.5 39 6.6 WNW 35 54 19 29 - - 0.0
19/10:11am 14.7 6.8 0.9 39 6.5 WNW 32 52 17 28 - - 0.0
19/10:00am 14.3 6.4 1.2 41 6.2 WNW 32 43 17 23 - - 0.0
19/09:30am 13.4 5.4 0.4 41 6.0 WNW 32 44 17 24 - - 0.0
19/09:24am 13.5 6.0 1.5 44 5.6 WNW 30 48 16 26 - - 0.0
19/09:00am 13.0 5.3 0.1 41 5.9 WNW 30 44 16 24 - - 0.0
19/08:32am 12.8 5.5 -0.1 41 5.8 WNW 28 48 15 26 - - 0.0
19/08:30am 12.5 5.6 0.3 43 5.5 WNW 26 37 14 20 - - 0.0
19/08:00am 12.1 5.5 -0.7 41 5.7 WNW 24 33 13 18 - - 0.0
19/07:30am 11.5 5.8 -0.6 43 5.3 NW 19 26 10 14 - - 0.0
19/07:00am 11.2 5.3 -0.9 43 5.3 WNW 20 32 11 17 - - 0.0
19/06:30am 10.7 4.4 -1.0 44 5.1 NW 22 33 12 18 - - 0.0
19/06:00am 10.2 4.9 -0.6 47 4.7 NW 17 24 9 13 - - 0.0
19/05:30am 10.2 5.7 -0.3 48 4.6 NNW 13 20 7 11 - - 0.0
19/05:00am 10.3 5.8 -0.2 48 4.6 NW 13 20 7 11 - - 0.0
19/04:30am 10.7 5.4 -0.4 46 4.9 NW 17 26 9 14 - - 0.0
19/04:00am 10.9 5.3 -0.2 46 4.9 NW 19 26 10 14 - - 0.0
19/03:30am 11.0 6.1 -0.5 45 5.1 NW 15 20 8 11 - - 0.0
19/03:00am 10.6 5.7 -0.5 46 4.9 NW 15 22 8 12 - - 0.0
19/02:30am 10.8 6.3 -0.3 46 4.9 NW 13 17 7 9 - - 0.0
19/02:00am 10.4 5.9 -0.1 48 4.6 NNW 13 19 7 10 - - 0.0
19/01:30am 10.9 6.0 -0.2 46 4.9 NNW 15 20 8 11 - - 0.0
19/01:00am 10.8 6.3 0.0 47 4.8 NNW 13 17 7 9 - - 0.0
19/12:30am 10.8 6.4 0.2 48 4.7 NNW 13 15 7 8 - - 0.0
19/12:00am 10.6 6.2 0.3 49 4.6 NNW 13 15 7 8 - - 0.0
 
Date/Time
EDT
Temp
°C
App
Temp
°C
Dew
Point
°C
Rel
Hum
%
Delta-T
°C
Wind Press
QNH
hPa
Press
MSL
hPa
Rain since
9am
mm
Dir  Spd
km/h
Gust
km/h
Spd
kts
Gust
kts
18/11:30pm 10.7 6.7 0.2 48 4.7 NW 11 15 6 8 - - 0.0
18/11:00pm 10.8 6.4 0.5 49 4.6 WNW 13 15 7 8 - - 0.0
18/10:30pm 10.8 6.8 0.5 49 4.6 W 11 15 6 8 - - 0.0
18/10:00pm 11.0 6.7 0.7 49 4.7 W 13 17 7 9 - - 0.0
18/09:30pm 10.7 7.1 0.7 50 4.5 W 9 13 5 7 - - 0.0
18/09:00pm 11.6 6.9 1.0 48 4.8 WNW 15 24 8 13 - - 0.0
18/08:30pm 11.9 7.2 0.7 46 5.1 WNW 15 22 8 12 - - 0.0
18/08:00pm 12.3 6.2 0.7 45 5.3 WNW 22 37 12 20 - - 0.0
18/07:30pm 13.3 6.9 0.7 42 5.8 WNW 24 32 13 17 - - 0.0
18/07:00pm 14.1 8.0 0.7 40 6.2 WNW 22 35 12 19 - - 0.0
18/06:30pm 14.3 7.4 0.2 38 6.5 WNW 26 35 14 19 - - 0.0
18/06:00pm 14.6 8.4 -0.3 36 6.8 W 22 33 12 18 - - 0.0
18/05:30pm 14.9 8.1 0.7 38 6.6 WNW 26 35 14 19 - - 0.0
18/05:00pm 15.3 8.5 0.7 37 6.8 WNW 26 43 14 23 - - 0.0
18/04:30pm 14.9 8.7 0.0 36 6.9 WNW 22 39 12 21 - - 0.0
18/04:00pm 15.2 9.6 -0.1 35 7.0 WNW 19 33 10 18 - - 0.0
18/03:30pm 14.8 8.4 -1.7 32 7.3 W 22 35 12 19 - - 0.0
18/03:00pm 14.5 7.8 -0.8 35 6.9 WNW 24 41 13 22 - - 0.0
18/02:30pm 15.2 9.2 1.0 38 6.7 WNW 22 33 12 18 - - 0.0
18/02:00pm 13.9 7.8 0.5 40 6.2 WNW 22 35 12 19 - - 0.0
18/01:30pm 13.6 8.1 1.6 44 5.7 NW 20 35 11 19 - - 0.0
18/01:00pm 13.9 8.7 2.2 45 5.6 WNW 19 28 10 15 - - 0.0
18/12:30pm 12.7 7.5 0.1 42 5.7 W 17 26 9 14 - - 0.0
18/12:00pm 11.9 6.0 -2.3 37 6.1 WNW 19 28 10 15 - - 0.0
18/11:30am 11.8 6.2 -2.8 36 6.2 WNW 17 26 9 14 - - 0.0

Other formats

Comma delimited format used in spreadsheet applications
http://www.bom.gov.au/fwo/IDN60801/IDN60801.95916.axf

JavaScript Object Notation format (JSON) in row-major order
http://www.bom.gov.au/fwo/IDN60801/IDN60801.95916.json

Data quality

Most of these data are generated automatically and are frequently updated. Quality checks on data are not normally performed. It is possible for incorrect values to appear. Refer to information at About Latest Weather Observations and please check the disclaimer before using these data.